createdAt,value
2023-01-10T00:00:08.131Z,55.92
2023-01-10T00:02:35.613Z,56.03
2023-01-10T00:05:02.629Z,56.21
2023-01-10T00:07:29.562Z,56.32
2023-01-10T00:09:56.494Z,56.47
2023-01-10T00:12:42.349Z,56.60
2023-01-10T00:15:10.073Z,56.62
2023-01-10T00:17:36.890Z,56.67
2023-01-10T00:20:04.532Z,56.75
2023-01-10T00:22:31.427Z,56.94
2023-01-10T00:24:58.408Z,57.05
2023-01-10T00:27:25.564Z,57.19
2023-01-10T00:29:52.819Z,57.41
2023-01-10T00:32:20.980Z,57.50
2023-01-10T00:34:48.631Z,57.59
2023-01-10T00:37:15.696Z,57.64
2023-01-10T00:39:42.557Z,57.71
2023-01-10T00:42:30.299Z,57.93
2023-01-10T00:44:57.318Z,58.10
2023-01-10T00:47:24.227Z,58.14
2023-01-10T00:49:51.152Z,58.31
2023-01-10T00:52:18.148Z,58.48
2023-01-10T00:54:45.256Z,58.61
2023-01-10T00:57:12.250Z,58.71
2023-01-10T00:59:39.137Z,58.90
2023-01-10T01:02:06.150Z,58.94
2023-01-10T01:04:34.594Z,58.98
2023-01-10T01:07:02.512Z,59.03
2023-01-10T01:09:31.679Z,59.13
2023-01-10T01:11:58.653Z,59.18
2023-01-10T01:14:25.513Z,59.35
2023-01-10T01:16:52.488Z,59.48
2023-01-10T01:19:19.477Z,59.53
2023-01-10T01:21:46.777Z,59.53
2023-01-10T01:24:13.763Z,59.64
2023-01-10T01:26:42.960Z,59.74
2023-01-10T01:29:10.547Z,59.87
2023-01-10T01:31:37.451Z,60.02
2023-01-10T01:34:04.620Z,60.08
2023-01-10T01:36:31.560Z,60.08
2023-01-10T01:38:58.531Z,60.15
2023-01-10T01:41:44.285Z,60.16
2023-01-10T01:44:16.217Z,60.17
2023-01-10T01:46:43.974Z,60.20
2023-01-10T01:49:15.123Z,60.23
2023-01-10T01:51:46.061Z,60.07
2023-01-10T01:54:13.258Z,60.06
2023-01-10T01:56:45.548Z,60.14
2023-01-10T01:59:18.061Z,60.19
2023-01-10T02:01:46.922Z,60.33
2023-01-10T02:04:17.633Z,60.37
2023-01-10T02:06:46.030Z,60.52
2023-01-10T02:09:33.188Z,60.59
2023-01-10T02:12:00.184Z,60.70
2023-01-10T02:14:27.222Z,60.90
2023-01-10T02:16:54.254Z,60.98
2023-01-10T02:19:25.508Z,61.06
2023-01-10T02:22:11.637Z,61.14
2023-01-10T02:24:41.520Z,61.11
2023-01-10T02:27:11.226Z,61.12
2023-01-10T02:29:44.325Z,61.15
2023-01-10T02:32:40.766Z,61.25
2023-01-10T02:35:37.437Z,61.34
2023-01-10T02:38:07.288Z,61.29
2023-01-10T02:41:05.282Z,61.38
2023-01-10T02:43:38.418Z,61.46
2023-01-10T02:46:14.931Z,61.45
2023-01-10T02:48:41.897Z,61.41
2023-01-10T02:51:14.981Z,61.40
2023-01-10T02:53:44.560Z,61.41
2023-01-10T02:56:34.613Z,61.50
2023-01-10T02:59:49.546Z,61.50
2023-01-10T03:02:33.906Z,61.45
2023-01-10T03:05:19.012Z,61.42
2023-01-10T03:07:54.631Z,61.38
2023-01-10T03:10:32.763Z,61.44
2023-01-10T03:13:06.658Z,61.33
2023-01-10T03:15:35.776Z,61.23
2023-01-10T03:18:05.020Z,61.14
2023-01-10T03:20:33.211Z,61.21
2023-01-10T03:23:00.009Z,61.05
2023-01-10T03:25:27.496Z,60.99
2023-01-10T03:28:07.950Z,60.97
2023-01-10T03:30:42.680Z,60.92
2023-01-10T03:33:09.512Z,60.91
2023-01-10T03:36:26.901Z,60.91
2023-01-10T03:38:58.721Z,60.91
2023-01-10T03:41:50.652Z,60.79
2023-01-10T03:44:45.096Z,60.82
2023-01-10T03:47:25.411Z,60.75
2023-01-10T03:49:59.572Z,60.74
2023-01-10T03:52:26.449Z,60.72
2023-01-10T03:54:54.199Z,60.68
2023-01-10T03:57:22.806Z,60.71
2023-01-10T03:59:52.564Z,60.78
2023-01-10T04:02:20.233Z,60.85
2023-01-10T04:04:47.231Z,60.91
2023-01-10T04:07:14.138Z,60.99
2023-01-10T04:09:41.183Z,60.96
2023-01-10T04:12:08.098Z,60.94
2023-01-10T04:14:35.113Z,60.93
2023-01-10T04:17:02.024Z,60.78
2023-01-10T04:19:28.898Z,60.69
2023-01-10T04:21:56.898Z,60.66
2023-01-10T04:24:23.921Z,60.67
2023-01-10T04:26:50.909Z,60.57
2023-01-10T04:29:17.754Z,60.50
2023-01-10T04:31:44.892Z,60.34
2023-01-10T04:34:12.421Z,60.10
2023-01-10T04:36:39.462Z,59.91
2023-01-10T04:39:06.510Z,59.70
2023-01-10T04:41:33.411Z,59.53
2023-01-10T04:44:00.469Z,59.46
2023-01-10T04:46:27.446Z,59.35
2023-01-10T04:48:54.377Z,59.23
2023-01-10T04:51:21.541Z,58.98
2023-01-10T04:53:48.468Z,58.51
2023-01-10T04:56:18.138Z,58.37
2023-01-10T04:58:45.144Z,58.31
2023-01-10T05:01:14.338Z,58.17
2023-01-10T05:03:41.279Z,58.08
2023-01-10T05:06:08.390Z,57.95
2023-01-10T05:08:35.380Z,57.79
2023-01-10T05:11:02.328Z,57.75
2023-01-10T05:13:29.142Z,57.72
2023-01-10T05:15:56.787Z,57.73
2023-01-10T05:18:24.811Z,57.93
2023-01-10T05:20:51.730Z,58.05
2023-01-10T05:23:18.634Z,58.17
2023-01-10T05:25:45.660Z,58.26
2023-01-10T05:28:12.495Z,58.40
2023-01-10T05:30:39.527Z,58.52
2023-01-10T05:33:06.652Z,58.54
2023-01-10T05:35:34.258Z,58.60
2023-01-10T05:38:02.004Z,58.74
2023-01-10T05:40:29.096Z,58.79
2023-01-10T05:42:55.958Z,58.85
2023-01-10T05:45:22.938Z,58.97
2023-01-10T05:47:50.000Z,59.11
2023-01-10T05:50:18.911Z,59.21
2023-01-10T05:52:46.125Z,59.30
2023-01-10T05:55:12.936Z,59.36
2023-01-10T05:57:39.822Z,59.36
2023-01-10T06:00:07.596Z,59.14
2023-01-10T06:02:38.600Z,59.06
2023-01-10T06:05:06.796Z,58.88
2023-01-10T06:07:34.148Z,58.62
2023-01-10T06:10:01.154Z,58.55
2023-01-10T06:12:28.122Z,58.28
2023-01-10T06:14:55.088Z,57.99
2023-01-10T06:17:21.963Z,57.87
2023-01-10T06:19:55.512Z,57.65
2023-01-10T06:22:42.732Z,57.58
2023-01-10T06:25:10.843Z,57.52
2023-01-10T06:27:42.176Z,57.52
2023-01-10T06:30:10.561Z,57.54
2023-01-10T06:32:37.847Z,57.60
2023-01-10T06:35:05.613Z,57.55
2023-01-10T06:37:32.672Z,57.65
2023-01-10T06:40:00.070Z,57.91
2023-01-10T06:42:27.027Z,58.01
2023-01-10T06:44:53.941Z,58.11
2023-01-10T06:47:20.915Z,58.08
2023-01-10T06:49:47.739Z,58.03
2023-01-10T06:52:15.143Z,58.07
2023-01-10T06:54:42.129Z,57.99
2023-01-10T06:57:09.298Z,57.94
2023-01-10T06:59:36.392Z,57.96
2023-01-10T07:02:03.415Z,57.83
2023-01-10T07:04:30.848Z,57.63
2023-01-10T07:06:57.818Z,57.62
2023-01-10T07:09:24.779Z,57.61
2023-01-10T07:11:51.574Z,57.52
2023-01-10T07:14:18.533Z,57.36
2023-01-10T07:16:45.377Z,57.07
2023-01-10T07:19:13.847Z,56.94
2023-01-10T07:21:41.851Z,56.87
2023-01-10T07:24:09.223Z,56.84
2023-01-10T07:26:36.340Z,56.87
2023-01-10T07:29:03.135Z,57.06
2023-01-10T07:31:30.142Z,57.14
2023-01-10T07:33:57.073Z,57.11
2023-01-10T07:36:23.911Z,56.92
2023-01-10T07:38:50.755Z,56.55
2023-01-10T07:41:17.618Z,56.29
2023-01-10T07:43:44.460Z,56.18
2023-01-10T07:46:12.635Z,56.20
2023-01-10T07:48:41.955Z,56.04
2023-01-10T07:51:09.061Z,55.76
2023-01-10T07:53:36.725Z,55.56
2023-01-10T07:56:03.936Z,55.35
2023-01-10T07:58:31.440Z,55.04
2023-01-10T08:00:59.210Z,54.81
2023-01-10T08:03:26.587Z,54.72
2023-01-10T08:06:04.685Z,54.47
2023-01-10T08:08:33.047Z,54.25
2023-01-10T08:11:02.682Z,54.10
2023-01-10T08:13:30.270Z,53.96
2023-01-10T08:15:57.232Z,53.74
2023-01-10T08:18:24.751Z,53.36
2023-01-10T08:20:52.987Z,53.05
2023-01-10T08:23:20.583Z,52.94
2023-01-10T08:25:47.967Z,52.76
2023-01-10T08:28:14.818Z,52.52
2023-01-10T08:30:41.719Z,52.55
2023-01-10T08:33:09.060Z,52.42
2023-01-10T08:35:43.447Z,52.13
2023-01-10T08:38:11.087Z,51.99
2023-01-10T08:40:38.071Z,51.76
2023-01-10T08:43:12.607Z,51.70
2023-01-10T08:45:39.782Z,51.59
2023-01-10T08:48:09.742Z,51.43
2023-01-10T08:50:36.698Z,51.25
2023-01-10T08:53:03.776Z,51.16
2023-01-10T08:55:31.381Z,51.05
2023-01-10T08:58:02.156Z,50.97
2023-01-10T09:00:29.969Z,50.96
2023-01-10T09:02:57.079Z,50.71
2023-01-10T09:05:27.978Z,50.58
2023-01-10T09:08:00.285Z,50.41
2023-01-10T09:10:28.533Z,50.10
2023-01-10T09:12:55.562Z,50.16
2023-01-10T09:15:27.041Z,50.26
2023-01-10T09:17:57.739Z,50.35
2023-01-10T09:20:25.341Z,50.29
2023-01-10T09:22:52.339Z,50.35
2023-01-10T09:25:19.600Z,50.33
2023-01-10T09:27:46.646Z,50.17
2023-01-10T09:30:14.253Z,50.24
2023-01-10T09:32:41.129Z,50.08
2023-01-10T09:35:08.657Z,50.18
2023-01-10T09:37:35.714Z,50.21
2023-01-10T09:40:02.755Z,49.94
2023-01-10T09:43:11.977Z,49.81
2023-01-10T09:45:52.055Z,49.80
2023-01-10T09:48:25.186Z,49.83
2023-01-10T09:51:10.597Z,49.88
2023-01-10T09:53:38.568Z,49.70
2023-01-10T09:56:06.462Z,49.52
2023-01-10T09:58:34.618Z,49.60
2023-01-10T10:01:11.776Z,49.72
2023-01-10T10:03:54.704Z,49.58
2023-01-10T10:06:22.488Z,49.51
2023-01-10T10:08:49.542Z,49.47
2023-01-10T10:11:25.865Z,49.55
2023-01-10T10:14:05.827Z,49.71
2023-01-10T10:16:42.035Z,49.65
2023-01-10T10:19:21.407Z,49.51
2023-01-10T10:22:45.379Z,49.50
2023-01-10T10:25:18.358Z,49.27
2023-01-10T10:28:07.179Z,49.07
2023-01-10T10:30:46.558Z,48.99
2023-01-10T10:33:22.887Z,49.03
2023-01-10T10:36:00.340Z,49.11
2023-01-10T10:38:30.175Z,49.20
2023-01-10T10:40:58.739Z,49.18
2023-01-10T10:43:34.631Z,49.30
2023-01-10T10:46:09.773Z,49.18
2023-01-10T10:48:39.805Z,49.19
2023-01-10T10:51:20.164Z,49.07
2023-01-10T10:53:48.484Z,49.18
2023-01-10T10:56:45.823Z,49.29
2023-01-10T10:59:18.996Z,49.25
2023-01-10T11:01:52.881Z,49.12
2023-01-10T11:04:23.835Z,49.01
2023-01-10T11:06:51.510Z,48.84
2023-01-10T11:10:03.153Z,48.61
2023-01-10T11:12:34.102Z,48.15
2023-01-10T11:15:08.396Z,47.94
2023-01-10T11:17:41.048Z,47.64
2023-01-10T11:20:17.367Z,47.55
2023-01-10T11:22:49.955Z,47.26
2023-01-10T11:25:18.956Z,47.07
2023-01-10T11:27:51.069Z,46.93
2023-01-10T11:30:31.079Z,46.79
2023-01-10T11:33:02.721Z,46.83
2023-01-10T11:35:37.651Z,46.92
2023-01-10T11:38:07.172Z,46.69
2023-01-10T11:40:35.225Z,46.70
2023-01-10T11:43:26.183Z,46.61
2023-01-10T11:45:58.234Z,46.25
2023-01-10T11:48:56.040Z,46.22
2023-01-10T11:51:27.317Z,45.88
2023-01-10T11:54:02.100Z,45.78
2023-01-10T11:56:33.960Z,45.68
2023-01-10T11:59:09.669Z,45.43
2023-01-10T12:01:56.125Z,45.15
2023-01-10T12:04:23.205Z,45.13
2023-01-10T12:06:51.969Z,45.06
2023-01-10T12:09:35.733Z,45.09
2023-01-10T12:12:03.419Z,45.06
2023-01-10T12:14:30.646Z,44.97
2023-01-10T12:17:01.536Z,44.98
2023-01-10T12:19:28.738Z,44.92
2023-01-10T12:21:58.190Z,44.90
2023-01-10T12:24:28.264Z,44.89
2023-01-10T12:26:55.209Z,44.81
2023-01-10T12:29:32.034Z,44.63
2023-01-10T12:31:58.935Z,44.51
2023-01-10T12:34:28.155Z,45.38
2023-01-10T12:37:40.590Z,47.21
2023-01-10T12:40:19.915Z,48.98
2023-01-10T12:43:14.099Z,49.90
2023-01-10T12:45:48.780Z,50.72
2023-01-10T12:48:23.762Z,51.29
2023-01-10T12:51:03.152Z,51.63
2023-01-10T12:53:45.673Z,51.90
2023-01-10T12:56:16.396Z,52.18
2023-01-10T12:58:45.082Z,52.34
2023-01-10T13:01:17.467Z,52.55
2023-01-10T13:03:45.044Z,52.73
2023-01-10T13:06:36.129Z,52.74
2023-01-10T13:09:24.990Z,52.79
2023-01-10T13:12:06.775Z,52.82
2023-01-10T13:14:44.883Z,52.47
2023-01-10T13:17:34.030Z,52.33
2023-01-10T13:20:16.475Z,52.29
2023-01-10T13:22:44.427Z,52.37
2023-01-10T13:25:27.006Z,52.45
2023-01-10T13:27:58.665Z,52.35
2023-01-10T13:30:26.283Z,52.34
2023-01-10T13:32:59.242Z,52.30
2023-01-10T13:35:28.607Z,52.40
2023-01-10T13:37:56.029Z,52.40
2023-01-10T13:40:28.431Z,52.46
2023-01-10T13:43:37.755Z,52.53
2023-01-10T13:46:17.140Z,52.50
2023-01-10T13:48:50.530Z,52.43
2023-01-10T13:51:19.243Z,52.33
2023-01-10T13:53:51.922Z,52.25
2023-01-10T13:56:39.368Z,52.15
2023-01-10T13:59:43.611Z,52.22
2023-01-10T14:02:29.408Z,52.25
2023-01-10T14:05:06.674Z,52.29
2023-01-10T14:07:43.614Z,52.30
2023-01-10T14:10:19.157Z,52.18
2023-01-10T14:12:57.992Z,51.96
2023-01-10T14:15:34.750Z,51.92
2023-01-10T14:18:08.575Z,51.82
2023-01-10T14:20:35.647Z,51.83
2023-01-10T14:23:18.885Z,51.97
2023-01-10T14:25:46.100Z,52.05
2023-01-10T14:28:21.945Z,52.10
2023-01-10T14:31:23.447Z,52.18
2023-01-10T14:33:50.378Z,52.25
2023-01-10T14:36:21.766Z,52.10
2023-01-10T14:38:48.793Z,51.83
2023-01-10T14:41:28.779Z,51.64
2023-01-10T14:43:59.741Z,51.64
2023-01-10T14:46:32.034Z,51.81
2023-01-10T14:49:01.055Z,51.90
2023-01-10T14:51:29.235Z,51.94
2023-01-10T14:54:04.005Z,52.07
2023-01-10T14:56:37.478Z,52.15
2023-01-10T14:59:16.525Z,51.84
2023-01-10T15:01:43.383Z,51.62
2023-01-10T15:04:21.004Z,51.57
2023-01-10T15:07:00.268Z,51.87
2023-01-10T15:09:27.554Z,51.88
2023-01-10T15:11:54.471Z,51.57
2023-01-10T15:14:23.603Z,51.44
2023-01-10T15:16:52.099Z,51.07
2023-01-10T15:19:20.556Z,51.08
2023-01-10T15:21:48.063Z,51.28
2023-01-10T15:24:33.887Z,51.37
2023-01-10T15:27:03.203Z,51.05
2023-01-10T15:29:30.256Z,51.05
2023-01-10T15:32:05.137Z,51.20
2023-01-10T15:34:32.145Z,51.27
2023-01-10T15:37:00.268Z,51.34
2023-01-10T15:39:35.910Z,51.28
2023-01-10T15:42:11.090Z,50.99
2023-01-10T15:44:45.037Z,50.76
2023-01-10T15:47:40.659Z,50.90
2023-01-10T15:50:18.707Z,51.06
2023-01-10T15:52:54.081Z,51.29
2023-01-10T15:55:45.542Z,51.52
2023-01-10T15:58:20.130Z,51.63
2023-01-10T16:00:47.486Z,51.44
2023-01-10T16:03:36.278Z,51.29
2023-01-10T16:06:05.056Z,51.22
2023-01-10T16:08:32.998Z,51.40
2023-01-10T16:11:01.164Z,51.62
2023-01-10T16:13:28.332Z,51.82
2023-01-10T16:15:56.158Z,51.93
2023-01-10T16:18:23.626Z,52.02
2023-01-10T16:20:52.416Z,52.05
2023-01-10T16:23:21.921Z,52.08
2023-01-10T16:25:51.452Z,52.13
2023-01-10T16:28:18.899Z,52.13
2023-01-10T16:30:48.859Z,52.18
2023-01-10T16:33:17.875Z,52.09
2023-01-10T16:35:45.665Z,52.02
2023-01-10T16:38:13.536Z,52.10
2023-01-10T16:40:41.689Z,52.26
2023-01-10T16:43:19.513Z,52.43
2023-01-10T16:45:47.623Z,52.56
2023-01-10T16:48:14.928Z,52.71
2023-01-10T16:50:41.953Z,52.80
2023-01-10T16:53:12.980Z,53.06
2023-01-10T16:55:51.456Z,53.17
2023-01-10T16:58:19.198Z,53.34
2023-01-10T17:00:48.781Z,53.46
2023-01-10T17:03:20.822Z,53.66
2023-01-10T17:05:47.859Z,53.80
2023-01-10T17:08:21.064Z,53.74
2023-01-10T17:10:49.760Z,53.63
2023-01-10T17:13:36.652Z,53.68
2023-01-10T17:16:03.635Z,53.87
2023-01-10T17:18:30.696Z,53.89
2023-01-10T17:20:57.893Z,53.84
2023-01-10T17:23:25.955Z,53.87
2023-01-10T17:26:04.449Z,53.92
2023-01-10T17:28:31.809Z,54.05
2023-01-10T17:30:58.850Z,54.26
2023-01-10T17:33:26.674Z,54.45
2023-01-10T17:35:55.630Z,54.60
2023-01-10T17:38:23.666Z,54.76
2023-01-10T17:40:50.608Z,54.85
2023-01-10T17:43:19.515Z,54.87
2023-01-10T17:45:49.841Z,54.99
2023-01-10T17:48:17.879Z,55.12
2023-01-10T17:50:49.330Z,54.23
2023-01-10T17:53:17.451Z,52.80
2023-01-10T17:55:48.211Z,51.98
2023-01-10T17:58:16.643Z,51.65
2023-01-10T18:00:43.824Z,51.32
2023-01-10T18:03:10.996Z,51.25
2023-01-10T18:05:39.978Z,51.23
2023-01-10T18:08:08.260Z,51.31
2023-01-10T18:10:35.253Z,51.19
2023-01-10T18:13:03.582Z,51.21
2023-01-10T18:15:30.895Z,51.24
2023-01-10T18:17:58.119Z,51.19
2023-01-10T18:20:25.188Z,51.18
2023-01-10T18:23:10.874Z,50.35
2023-01-10T18:33:14.218Z,48.39
2023-01-10T18:35:41.063Z,48.19
2023-01-10T18:38:07.997Z,48.13
2023-01-10T18:40:34.939Z,48.13
2023-01-10T18:43:01.997Z,48.09
2023-01-10T18:45:30.693Z,48.06
2023-01-10T18:47:59.282Z,47.98
2023-01-10T18:50:26.419Z,47.83
2023-01-10T18:52:53.467Z,47.68
2023-01-10T18:55:20.410Z,47.58
2023-01-10T18:57:48.269Z,47.45
2023-01-10T19:00:15.971Z,47.17
2023-01-10T19:02:43.067Z,46.84
2023-01-10T19:05:10.099Z,46.56
2023-01-10T19:07:37.178Z,46.48
2023-01-10T19:10:04.655Z,46.26
2023-01-10T19:12:31.607Z,46.04
2023-01-10T19:14:58.575Z,46.12
2023-01-10T19:17:26.192Z,46.05
2023-01-10T19:19:54.679Z,45.87
2023-01-10T19:22:23.980Z,45.87
2023-01-10T19:24:51.460Z,45.75
2023-01-10T19:27:21.106Z,45.47
2023-01-10T19:29:49.823Z,45.43
2023-01-10T19:32:17.006Z,45.48
2023-01-10T19:34:46.278Z,45.42
2023-01-10T19:37:13.513Z,45.51
2023-01-10T19:39:40.343Z,45.71
2023-01-10T19:42:07.231Z,45.84
2023-01-10T19:44:34.370Z,46.02
2023-01-10T19:47:01.587Z,46.09
2023-01-10T19:49:32.395Z,45.97
2023-01-10T19:52:00.339Z,45.83
2023-01-10T19:54:27.374Z,45.82
2023-01-10T19:56:54.317Z,45.75
2023-01-10T19:59:21.302Z,45.69
2023-01-10T20:01:48.176Z,45.71
2023-01-10T20:04:15.359Z,45.78
2023-01-10T20:06:42.681Z,45.98
2023-01-10T20:09:11.112Z,45.99
2023-01-10T20:11:38.453Z,46.19
2023-01-10T20:14:06.521Z,46.07
2023-01-10T20:16:33.759Z,46.16
2023-01-10T20:19:00.745Z,46.28
2023-01-10T20:21:27.905Z,46.20
2023-01-10T20:23:54.880Z,46.14
2023-01-10T20:26:27.810Z,46.14
2023-01-10T20:28:56.708Z,46.11
2023-01-10T20:31:24.261Z,45.90
2023-01-10T20:33:51.304Z,46.00
2023-01-10T20:36:20.135Z,46.14
2023-01-10T20:38:46.950Z,46.48
2023-01-10T20:41:17.864Z,46.77
2023-01-10T20:43:44.806Z,47.06
2023-01-10T20:46:13.766Z,47.38
2023-01-10T20:48:41.699Z,47.53
2023-01-10T20:51:13.943Z,47.57
2023-01-10T20:53:40.809Z,47.11
2023-01-10T20:56:11.949Z,47.00
2023-01-10T20:58:39.852Z,46.59
2023-01-10T21:01:07.169Z,46.17
2023-01-10T21:03:34.299Z,46.08
2023-01-10T21:06:01.730Z,46.02
2023-01-10T21:08:31.677Z,45.89
2023-01-10T21:10:58.639Z,45.59
2023-01-10T21:13:26.393Z,45.64
2023-01-10T21:15:57.722Z,46.09
2023-01-10T21:18:35.329Z,46.58
2023-01-10T21:21:02.189Z,46.85
2023-01-10T21:23:29.564Z,47.16
2023-01-10T21:26:02.125Z,47.49
2023-01-10T21:28:29.168Z,47.63
2023-01-10T21:30:56.314Z,47.78
2023-01-10T21:33:24.064Z,47.78
2023-01-10T21:35:55.410Z,47.62
2023-01-10T21:38:22.457Z,47.43
2023-01-10T21:40:49.275Z,47.11
2023-01-10T21:43:16.050Z,46.97
2023-01-10T21:45:42.902Z,46.66
2023-01-10T21:48:09.795Z,46.57
2023-01-10T21:50:36.614Z,46.43
2023-01-10T21:53:03.527Z,46.35
2023-01-10T21:55:31.532Z,46.39
2023-01-10T21:57:58.636Z,46.39
2023-01-10T22:00:26.128Z,46.40
2023-01-10T22:02:53.044Z,46.39
2023-01-10T22:05:20.584Z,46.32
2023-01-10T22:07:48.262Z,46.27
2023-01-10T22:10:15.348Z,46.25
2023-01-10T22:12:42.254Z,46.30
2023-01-10T22:15:10.935Z,46.39
2023-01-10T22:17:37.965Z,46.62
2023-01-10T22:20:05.960Z,46.70
2023-01-10T22:22:32.942Z,46.76
2023-01-10T22:24:59.856Z,47.06
2023-01-10T22:27:29.377Z,47.15
2023-01-10T22:29:56.304Z,47.29
2023-01-10T22:32:23.347Z,47.56
2023-01-10T22:34:50.398Z,47.70
2023-01-10T22:37:17.603Z,47.79
2023-01-10T22:39:46.082Z,47.98
2023-01-10T22:42:13.968Z,48.04
2023-01-10T22:44:40.945Z,47.94
2023-01-10T22:47:08.688Z,48.12
2023-01-10T22:49:35.760Z,48.31
2023-01-10T22:52:02.597Z,48.39
2023-01-10T22:54:31.996Z,48.20
2023-01-10T22:56:59.426Z,48.25
2023-01-10T22:59:27.125Z,48.35
2023-01-10T23:01:55.914Z,48.59
2023-01-10T23:04:23.213Z,48.72
2023-01-10T23:06:50.379Z,48.91
2023-01-10T23:09:17.313Z,49.04
2023-01-10T23:11:45.527Z,49.14
2023-01-10T23:14:12.506Z,49.28
2023-01-10T23:16:43.398Z,49.34
2023-01-10T23:19:10.569Z,49.31
2023-01-10T23:21:38.473Z,49.34
2023-01-10T23:24:05.995Z,49.51
2023-01-10T23:26:33.453Z,49.56
2023-01-10T23:29:00.488Z,49.42
2023-01-10T23:31:29.588Z,49.45
2023-01-10T23:33:56.845Z,49.39
2023-01-10T23:36:24.019Z,49.37
2023-01-10T23:38:51.351Z,49.50
2023-01-10T23:41:21.323Z,49.59
2023-01-10T23:43:49.536Z,49.79
2023-01-10T23:46:16.752Z,49.94
2023-01-10T23:48:46.826Z,50.10
2023-01-10T23:51:14.133Z,50.19
2023-01-10T23:53:41.341Z,50.18
2023-01-10T23:56:14.708Z,50.23
2023-01-10T23:58:41.871Z,50.41
